createdAt,value
2022-08-29T11:25:21.852Z,25.25
2022-08-29T11:26:21.835Z,25.80
2022-08-29T11:27:21.812Z,26.36
2022-08-29T11:28:21.816Z,26.60
2022-08-29T11:29:21.781Z,26.60
2022-08-29T11:30:21.772Z,27.13
2022-08-29T11:31:21.801Z,27.75
2022-08-29T11:32:21.750Z,28.34
2022-08-29T11:33:21.754Z,28.41
2022-08-29T11:34:21.724Z,27.94
2022-08-29T11:35:21.708Z,27.60
2022-08-29T11:36:21.694Z,27.19
2022-08-29T11:37:21.682Z,26.89
2022-08-29T11:38:21.681Z,26.81
2022-08-29T11:39:21.678Z,26.67
2022-08-29T11:40:47.327Z,26.82
2022-08-29T11:41:29.421Z,26.81
2022-08-29T11:43:21.619Z,26.91
2022-08-29T11:44:21.607Z,27.43
2022-08-29T11:45:21.584Z,27.29
2022-08-29T11:46:21.592Z,27.04
2022-08-29T11:47:21.558Z,26.70
2022-08-29T11:48:21.570Z,26.10
2022-08-29T11:49:21.543Z,26.40
2022-08-29T11:50:21.523Z,26.55
2022-08-29T11:51:21.509Z,26.94
2022-08-29T11:52:22.522Z,27.19
2022-08-29T11:53:21.501Z,27.39
2022-08-29T11:54:25.006Z,26.43
2022-08-29T11:55:21.471Z,26.13
2022-08-29T11:56:29.031Z,26.09
2022-08-29T11:57:21.444Z,26.06
2022-08-29T11:58:21.445Z,26.80
2022-08-29T11:59:21.413Z,26.33
2022-08-29T12:00:21.440Z,26.44
2022-08-29T12:01:21.396Z,26.52
2022-08-29T12:02:21.415Z,26.30
2022-08-29T12:03:28.548Z,26.85
2022-08-29T12:04:21.375Z,27.18
2022-08-29T12:05:21.339Z,27.03
2022-08-29T12:06:21.329Z,26.67
2022-08-29T12:07:21.326Z,26.75
2022-08-29T12:08:35.966Z,27.12
2022-08-29T12:09:21.350Z,27.75
2022-08-29T12:10:21.288Z,28.03
2022-08-29T12:11:21.280Z,27.99
2022-08-29T12:12:21.259Z,27.85
2022-08-29T12:13:21.260Z,27.82
2022-08-29T12:14:21.252Z,27.79
2022-08-29T12:15:21.232Z,27.87
2022-08-29T12:16:21.250Z,28.48
2022-08-29T12:17:21.202Z,28.85
2022-08-29T12:18:21.211Z,29.00
2022-08-29T12:19:21.185Z,29.31
2022-08-29T12:20:21.167Z,29.33
2022-08-29T12:21:21.155Z,29.21
2022-08-29T12:22:22.031Z,28.85
2022-08-29T12:23:21.146Z,29.30
2022-08-29T12:24:21.134Z,29.55
2022-08-29T12:25:21.108Z,29.90
2022-08-29T12:26:22.801Z,30.27
2022-08-29T12:27:21.089Z,30.02
2022-08-29T12:28:21.089Z,28.90
2022-08-29T12:29:21.068Z,28.66
2022-08-29T12:30:21.068Z,29.46
2022-08-29T12:31:21.109Z,30.02
2022-08-29T12:32:23.826Z,30.27
2022-08-29T12:33:21.036Z,31.04
2022-08-29T12:34:23.449Z,30.79
2022-08-29T12:35:21.003Z,30.51
2022-08-29T12:36:20.994Z,30.46
2022-08-29T12:37:20.993Z,30.23
2022-08-29T12:38:20.984Z,30.70
2022-08-29T12:39:20.962Z,30.07
2022-08-29T12:40:20.999Z,30.23
2022-08-29T12:41:20.941Z,30.54
2022-08-29T12:42:20.940Z,30.24
2022-08-29T12:43:20.934Z,30.79
2022-08-29T12:44:20.922Z,30.13
2022-08-29T12:45:20.901Z,30.10
2022-08-29T12:46:20.925Z,29.19
2022-08-29T12:47:20.882Z,29.78
2022-08-29T12:48:20.895Z,29.04
2022-08-29T12:49:20.863Z,28.52
2022-08-29T12:50:20.854Z,27.79
2022-08-29T12:51:20.853Z,28.04
2022-08-29T12:52:20.835Z,28.80
2022-08-29T12:53:20.845Z,29.04
2022-08-29T12:54:20.826Z,29.02
2022-08-29T12:55:20.815Z,28.85
2022-08-29T12:56:20.794Z,28.58
2022-08-29T12:57:20.785Z,28.44
2022-08-29T12:58:20.800Z,28.43
2022-08-29T12:59:20.766Z,28.78
2022-08-29T13:00:20.764Z,29.58
2022-08-29T13:01:20.785Z,30.22
2022-08-29T13:02:20.776Z,30.22
2022-08-29T13:03:20.805Z,30.26
2022-08-29T13:04:20.721Z,30.34
2022-08-29T13:05:22.579Z,30.70
2022-08-29T13:06:20.704Z,31.13
2022-08-29T13:08:20.831Z,29.73
2022-08-29T13:09:20.682Z,29.78
2022-08-29T13:10:20.672Z,29.33
2022-08-29T13:11:20.650Z,29.58
2022-08-29T13:12:20.641Z,30.26
2022-08-29T13:13:20.646Z,30.11
2022-08-29T13:14:20.633Z,29.74
2022-08-29T13:15:20.626Z,29.49
2022-08-29T13:16:20.662Z,29.06
2022-08-29T13:17:20.598Z,28.30
2022-08-29T13:18:20.598Z,28.34
2022-08-29T13:19:20.578Z,28.15
2022-08-29T13:20:20.579Z,28.22
2022-08-29T13:21:20.560Z,27.99
2022-08-29T13:22:20.550Z,28.64
2022-08-29T13:23:20.547Z,28.37
2022-08-29T13:24:20.565Z,28.96
2022-08-29T13:25:20.528Z,29.39
2022-08-29T13:26:20.513Z,29.00
2022-08-29T13:27:20.512Z,28.66
2022-08-29T13:28:20.502Z,27.97
2022-08-29T13:29:20.537Z,28.07
2022-08-29T13:30:20.485Z,28.46
2022-08-29T13:31:20.553Z,28.95
2022-08-29T13:32:20.467Z,29.90
2022-08-29T13:33:20.448Z,30.45
2022-08-29T13:34:20.450Z,30.76
2022-08-29T13:35:20.447Z,31.41
2022-08-29T13:36:20.430Z,30.99
2022-08-29T13:37:20.417Z,30.65
2022-08-29T13:38:20.404Z,30.83
2022-08-29T13:39:20.404Z,30.99
2022-08-29T13:40:20.492Z,30.84
2022-08-29T13:41:20.384Z,30.65
2022-08-29T13:42:20.367Z,30.23
2022-08-29T13:43:20.365Z,30.35
2022-08-29T13:44:20.371Z,30.70
2022-08-29T13:45:20.339Z,30.45
2022-08-29T13:46:20.388Z,29.60
2022-08-29T13:47:20.327Z,29.39
2022-08-29T13:48:20.455Z,29.89
2022-08-29T13:49:20.320Z,28.58
2022-08-29T13:50:20.299Z,28.83
2022-08-29T13:51:20.303Z,29.06
2022-08-29T13:52:20.291Z,29.34
2022-08-29T13:53:20.284Z,29.60
2022-08-29T13:54:20.287Z,29.33
2022-08-29T13:55:20.260Z,28.98
2022-08-29T13:56:20.438Z,29.57
2022-08-29T13:57:20.254Z,30.05
2022-08-29T13:58:20.245Z,30.24
2022-08-29T13:59:20.252Z,30.05
2022-08-29T14:00:22.798Z,29.42
2022-08-29T14:02:20.420Z,30.00
2022-08-29T14:03:20.311Z,30.00
2022-08-29T14:04:37.395Z,29.16
2022-08-29T14:05:20.179Z,29.90
2022-08-29T14:06:20.172Z,30.05
2022-08-29T14:07:20.166Z,30.80
2022-08-29T14:08:20.156Z,29.97
2022-08-29T14:09:20.166Z,30.51
2022-08-29T14:10:20.152Z,30.16
2022-08-29T14:11:20.145Z,29.87
2022-08-29T14:12:20.126Z,29.86
2022-08-29T14:13:20.130Z,30.02
2022-08-29T14:14:20.113Z,30.51
2022-08-29T14:15:20.119Z,30.38
2022-08-29T14:16:20.157Z,29.86
2022-08-29T14:17:20.092Z,29.89
2022-08-29T14:18:20.084Z,30.05
2022-08-29T14:19:20.087Z,29.76
2022-08-29T14:20:20.093Z,29.71
2022-08-29T14:21:20.068Z,29.67
2022-08-29T14:22:20.052Z,29.76
2022-08-29T14:23:23.169Z,30.08
2022-08-29T14:24:20.047Z,30.07
2022-08-29T14:25:20.055Z,30.01
2022-08-29T14:26:20.024Z,29.42
2022-08-29T14:27:20.017Z,29.15
2022-08-29T14:28:20.017Z,29.53
2022-08-29T14:29:20.005Z,28.56
2022-08-29T14:30:20.014Z,28.36
2022-08-29T14:31:20.063Z,28.36
2022-08-29T14:32:19.977Z,27.63
2022-08-29T14:33:20.107Z,28.14
2022-08-29T14:34:19.961Z,28.27
2022-08-29T14:35:26.494Z,28.83
2022-08-29T14:36:19.946Z,28.12
2022-08-29T14:37:19.954Z,28.44
2022-08-29T14:38:19.941Z,28.93
2022-08-29T14:39:19.923Z,28.93
2022-08-29T14:40:21.831Z,29.11
2022-08-29T14:41:19.907Z,28.66
2022-08-29T14:42:19.909Z,29.15
2022-08-29T14:43:19.903Z,29.51
2022-08-29T14:44:20.469Z,29.33
2022-08-29T14:45:19.888Z,29.71
2022-08-29T14:46:19.920Z,29.28
2022-08-29T14:47:19.872Z,29.48
2022-08-29T14:48:19.851Z,30.00
2022-08-29T14:49:19.844Z,30.67
2022-08-29T14:50:19.855Z,30.95
2022-08-29T14:51:19.829Z,31.43
2022-08-29T14:52:19.823Z,30.54
2022-08-29T14:53:19.813Z,30.08
2022-08-29T14:54:19.805Z,30.65
2022-08-29T14:55:19.812Z,31.04
2022-08-29T14:56:37.240Z,30.76
2022-08-29T14:57:19.783Z,30.38
2022-08-29T14:58:19.790Z,29.64
2022-08-29T14:59:19.773Z,29.49
2022-08-29T15:00:19.773Z,28.98
2022-08-29T15:01:19.823Z,29.14
2022-08-29T15:02:19.792Z,29.68
2022-08-29T15:03:19.751Z,30.47
2022-08-29T15:04:21.755Z,30.82
2022-08-29T15:05:19.737Z,30.62
2022-08-29T15:06:19.727Z,30.05
2022-08-29T15:07:19.725Z,28.85
2022-08-29T15:08:20.089Z,28.18
2022-08-29T15:09:19.699Z,28.24
2022-08-29T15:10:19.707Z,28.55
2022-08-29T15:11:19.694Z,28.61
2022-08-29T15:12:19.685Z,28.03
2022-08-29T15:13:19.670Z,27.82
2022-08-29T15:14:19.679Z,27.87
2022-08-29T15:15:19.670Z,28.12
2022-08-29T15:16:19.695Z,28.58
2022-08-29T15:17:19.649Z,29.00
2022-08-29T15:18:48.028Z,29.83
2022-08-29T15:20:37.161Z,30.20
2022-08-29T15:21:19.610Z,29.90
2022-08-29T15:22:19.601Z,29.78
2022-08-29T15:23:19.626Z,29.82
2022-08-29T15:24:19.584Z,29.60
2022-08-29T15:25:19.600Z,29.49
2022-08-29T15:26:19.580Z,28.61
2022-08-29T15:27:21.627Z,28.31
2022-08-29T15:28:19.558Z,27.75
2022-08-29T15:29:19.547Z,27.50
2022-08-29T15:30:19.564Z,27.55
2022-08-29T15:31:19.653Z,27.40
2022-08-29T15:32:19.529Z,27.60
2022-08-29T15:33:19.525Z,27.90
2022-08-29T15:34:19.514Z,27.75
2022-08-29T15:35:19.522Z,28.11
2022-08-29T15:36:19.499Z,28.11
2022-08-29T15:37:19.491Z,27.81
2022-08-29T15:38:19.482Z,27.82
2022-08-29T15:39:19.478Z,27.99
2022-08-29T15:40:19.560Z,28.18
2022-08-29T15:41:19.450Z,27.85
2022-08-29T15:54:00.238Z,26.40
2022-08-29T15:55:00.212Z,26.85
2022-08-29T15:56:00.213Z,27.00
2022-08-29T15:57:00.182Z,27.12
2022-08-29T15:58:00.182Z,27.25
2022-08-29T15:59:00.166Z,27.06
2022-08-29T16:00:00.187Z,27.17
2022-08-29T16:01:00.182Z,27.49
2022-08-29T16:02:00.237Z,27.81
2022-08-29T16:03:00.238Z,27.47
2022-08-29T16:04:00.116Z,27.43
2022-08-29T16:05:00.155Z,27.62
2022-08-29T16:06:00.119Z,27.75
2022-08-29T16:07:00.093Z,27.47
2022-08-29T16:08:00.092Z,27.57
2022-08-29T16:09:00.080Z,27.59
2022-08-29T16:10:00.075Z,27.57
2022-08-29T16:30:05.414Z,26.87
2022-08-29T16:31:05.410Z,27.06
